University Heights, New York
Current Conditions -  °F | °C
As of 3:51 PM on Monday 24 Nov 2014 (Local Time) from KNYC Reporting Station
Few Clouds Few Clouds  
Wind Chill: 67°   Ceiling: Unl
Heat Index: 67°   Visibility: 10mi
Dew Point: 54°   Wind: 3mph
Humidity: 63%   Direction: NA
Pressure: 29.61"   Gusts: NA
Location:  40.8376°N, 73.9236°W
Report Text: KNYC 242051Z AUTO VRB03KT 10SM FEW041 19/12 A2961 RMK AO2 SLP018 T01940122 55005 $
Loading
Personal Weather Stations






























Interactive Weather Map New forecast layout! Learn more

10-Day Weather Forecast

Advertisements
Track Severe Weather on mobile